sensor_id;sensor_type;location;lat;lon;timestamp;P1;durP1;ratioP1;P2;durP2;ratioP2
21444;SDS011;10883;51.946;20.140;2023-03-21T00:00:04;54.13;;;25.67;;
21444;SDS011;10883;51.946;20.140;2023-03-21T00:02:31;51.55;;;25.17;;
21444;SDS011;10883;51.946;20.140;2023-03-21T00:04:57;53.67;;;26.02;;
21444;SDS011;10883;51.946;20.140;2023-03-21T00:07:23;54.85;;;26.83;;
21444;SDS011;10883;51.946;20.140;2023-03-21T00:09:49;55.08;;;26.73;;
21444;SDS011;10883;51.946;20.140;2023-03-21T00:12:14;56.15;;;28.60;;
21444;SDS011;10883;51.946;20.140;2023-03-21T00:14:40;55.97;;;26.45;;
21444;SDS011;10883;51.946;20.140;2023-03-21T00:17:07;55.25;;;27.50;;
21444;SDS011;10883;51.946;20.140;2023-03-21T00:19:34;57.50;;;26.73;;
21444;SDS011;10883;51.946;20.140;2023-03-21T00:22:03;51.53;;;26.55;;
21444;SDS011;10883;51.946;20.140;2023-03-21T00:24:29;55.78;;;27.27;;
21444;SDS011;10883;51.946;20.140;2023-03-21T00:26:55;56.67;;;27.75;;
21444;SDS011;10883;51.946;20.140;2023-03-21T00:29:20;64.22;;;28.92;;
21444;SDS011;10883;51.946;20.140;2023-03-21T00:31:46;49.25;;;26.55;;
21444;SDS011;10883;51.946;20.140;2023-03-21T00:34:12;49.35;;;24.08;;
21444;SDS011;10883;51.946;20.140;2023-03-21T00:36:38;56.88;;;25.67;;
21444;SDS011;10883;51.946;20.140;2023-03-21T00:39:03;50.05;;;26.17;;
21444;SDS011;10883;51.946;20.140;2023-03-21T00:41:30;54.30;;;24.23;;
21444;SDS011;10883;51.946;20.140;2023-03-21T00:43:56;50.80;;;25.15;;
21444;SDS011;10883;51.946;20.140;2023-03-21T00:46:22;54.42;;;25.05;;
21444;SDS011;10883;51.946;20.140;2023-03-21T00:48:48;52.33;;;26.02;;
21444;SDS011;10883;51.946;20.140;2023-03-21T00:51:17;56.92;;;28.20;;
21444;SDS011;10883;51.946;20.140;2023-03-21T00:53:50;52.10;;;26.42;;
21444;SDS011;10883;51.946;20.140;2023-03-21T00:56:17;59.83;;;25.73;;
21444;SDS011;10883;51.946;20.140;2023-03-21T00:58:43;50.75;;;25.73;;
21444;SDS011;10883;51.946;20.140;2023-03-21T01:01:08;57.75;;;26.35;;
21444;SDS011;10883;51.946;20.140;2023-03-21T01:03:34;51.40;;;24.25;;
21444;SDS011;10883;51.946;20.140;2023-03-21T01:06:07;53.90;;;24.77;;
21444;SDS011;10883;51.946;20.140;2023-03-21T01:08:38;56.67;;;26.73;;
21444;SDS011;10883;51.946;20.140;2023-03-21T01:11:07;52.35;;;26.73;;
21444;SDS011;10883;51.946;20.140;2023-03-21T01:13:36;54.00;;;26.00;;
21444;SDS011;10883;51.946;20.140;2023-03-21T01:16:02;56.20;;;26.10;;
21444;SDS011;10883;51.946;20.140;2023-03-21T01:18:30;54.33;;;26.77;;
21444;SDS011;10883;51.946;20.140;2023-03-21T01:20:57;60.58;;;27.75;;
21444;SDS011;10883;51.946;20.140;2023-03-21T01:23:26;57.58;;;27.98;;
21444;SDS011;10883;51.946;20.140;2023-03-21T01:25:53;61.50;;;30.50;;
21444;SDS011;10883;51.946;20.140;2023-03-21T01:28:20;72.40;;;32.42;;
21444;SDS011;10883;51.946;20.140;2023-03-21T01:30:47;113.95;;;45.85;;
21444;SDS011;10883;51.946;20.140;2023-03-21T01:33:14;80.07;;;37.25;;
21444;SDS011;10883;51.946;20.140;2023-03-21T01:35:41;68.40;;;30.92;;
21444;SDS011;10883;51.946;20.140;2023-03-21T01:38:07;71.03;;;32.10;;
21444;SDS011;10883;51.946;20.140;2023-03-21T01:40:34;74.97;;;29.30;;
21444;SDS011;10883;51.946;20.140;2023-03-21T01:43:01;66.15;;;28.77;;
21444;SDS011;10883;51.946;20.140;2023-03-21T01:48:30;65.05;;;28.38;;
21444;SDS011;10883;51.946;20.140;2023-03-21T01:50:58;65.65;;;27.10;;
21444;SDS011;10883;51.946;20.140;2023-03-21T01:53:25;73.22;;;29.73;;
21444;SDS011;10883;51.946;20.140;2023-03-21T01:55:58;66.20;;;28.98;;
21444;SDS011;10883;51.946;20.140;2023-03-21T01:58:29;71.90;;;30.65;;
21444;SDS011;10883;51.946;20.140;2023-03-21T02:00:56;63.30;;;27.15;;
21444;SDS011;10883;51.946;20.140;2023-03-21T02:03:22;67.65;;;28.35;;
21444;SDS011;10883;51.946;20.140;2023-03-21T02:05:53;70.15;;;29.33;;
21444;SDS011;10883;51.946;20.140;2023-03-21T02:08:24;61.75;;;27.52;;
21444;SDS011;10883;51.946;20.140;2023-03-21T02:10:51;70.30;;;29.25;;
21444;SDS011;10883;51.946;20.140;2023-03-21T02:13:17;67.32;;;28.83;;
21444;SDS011;10883;51.946;20.140;2023-03-21T02:15:45;62.03;;;26.65;;
21444;SDS011;10883;51.946;20.140;2023-03-21T02:18:21;65.97;;;28.90;;
21444;SDS011;10883;51.946;20.140;2023-03-21T02:29:04;68.32;;;30.73;;
21444;SDS011;10883;51.946;20.140;2023-03-21T02:35:27;67.85;;;29.65;;
21444;SDS011;10883;51.946;20.140;2023-03-21T02:37:36;63.50;;;28.85;;
21444;SDS011;10883;51.946;20.140;2023-03-21T02:43:16;65.88;;;28.15;;
21444;SDS011;10883;51.946;20.140;2023-03-21T02:45:53;65.57;;;28.40;;
21444;SDS011;10883;51.946;20.140;2023-03-21T02:48:36;63.03;;;26.52;;
21444;SDS011;10883;51.946;20.140;2023-03-21T02:51:06;62.72;;;27.25;;
21444;SDS011;10883;51.946;20.140;2023-03-21T02:53:37;63.40;;;28.45;;
21444;SDS011;10883;51.946;20.140;2023-03-21T02:56:06;63.50;;;27.75;;
21444;SDS011;10883;51.946;20.140;2023-03-21T02:58:34;62.25;;;26.52;;
21444;SDS011;10883;51.946;20.140;2023-03-21T03:01:03;56.38;;;25.92;;
21444;SDS011;10883;51.946;20.140;2023-03-21T03:03:31;53.97;;;25.42;;
21444;SDS011;10883;51.946;20.140;2023-03-21T03:05:59;59.65;;;26.27;;
21444;SDS011;10883;51.946;20.140;2023-03-21T03:19:06;55.88;;;24.52;;
21444;SDS011;10883;51.946;20.140;2023-03-21T03:21:48;55.47;;;24.70;;
21444;SDS011;10883;51.946;20.140;2023-03-21T03:24:33;62.88;;;24.75;;
21444;SDS011;10883;51.946;20.140;2023-03-21T03:27:10;53.67;;;24.92;;
21444;SDS011;10883;51.946;20.140;2023-03-21T03:29:51;50.58;;;23.90;;
21444;SDS011;10883;51.946;20.140;2023-03-21T03:32:27;52.05;;;24.75;;
21444;SDS011;10883;51.946;20.140;2023-03-21T03:34:59;58.38;;;23.83;;
21444;SDS011;10883;51.946;20.140;2023-03-21T03:37:27;49.67;;;24.67;;
21444;SDS011;10883;51.946;20.140;2023-03-21T03:40:16;53.42;;;24.08;;
21444;SDS011;10883;51.946;20.140;2023-03-21T03:42:51;52.05;;;24.85;;
21444;SDS011;10883;51.946;20.140;2023-03-21T03:45:24;53.83;;;24.73;;
21444;SDS011;10883;51.946;20.140;2023-03-21T03:50:37;55.15;;;24.65;;
21444;SDS011;10883;51.946;20.140;2023-03-21T03:53:06;53.67;;;24.42;;
21444;SDS011;10883;51.946;20.140;2023-03-21T03:55:37;63.00;;;26.92;;
21444;SDS011;10883;51.946;20.140;2023-03-21T03:58:03;56.08;;;26.20;;
21444;SDS011;10883;51.946;20.140;2023-03-21T04:00:32;59.47;;;26.52;;
21444;SDS011;10883;51.946;20.140;2023-03-21T04:02:59;55.33;;;26.63;;
21444;SDS011;10883;51.946;20.140;2023-03-21T04:05:25;52.70;;;25.08;;
21444;SDS011;10883;51.946;20.140;2023-03-21T04:07:52;57.83;;;26.65;;
21444;SDS011;10883;51.946;20.140;2023-03-21T04:10:19;53.63;;;25.67;;
21444;SDS011;10883;51.946;20.140;2023-03-21T04:12:46;52.28;;;26.25;;
21444;SDS011;10883;51.946;20.140;2023-03-21T04:15:12;55.35;;;24.13;;
21444;SDS011;10883;51.946;20.140;2023-03-21T04:17:38;57.15;;;24.42;;
21444;SDS011;10883;51.946;20.140;2023-03-21T04:20:04;56.13;;;26.35;;
21444;SDS011;10883;51.946;20.140;2023-03-21T04:22:32;48.78;;;23.95;;
21444;SDS011;10883;51.946;20.140;2023-03-21T04:24:59;58.67;;;28.38;;
21444;SDS011;10883;51.946;20.140;2023-03-21T04:27:29;60.67;;;28.17;;
21444;SDS011;10883;51.946;20.140;2023-03-21T04:29:56;52.03;;;26.77;;
21444;SDS011;10883;51.946;20.140;2023-03-21T04:32:22;61.60;;;29.70;;
21444;SDS011;10883;51.946;20.140;2023-03-21T04:34:50;58.75;;;27.75;;
21444;SDS011;10883;51.946;20.140;2023-03-21T04:37:19;55.70;;;26.90;;
21444;SDS011;10883;51.946;20.140;2023-03-21T04:39:47;54.55;;;26.17;;
21444;SDS011;10883;51.946;20.140;2023-03-21T04:42:14;65.25;;;29.33;;
21444;SDS011;10883;51.946;20.140;2023-03-21T04:44:45;57.85;;;27.60;;
21444;SDS011;10883;51.946;20.140;2023-03-21T04:47:11;55.05;;;26.88;;
21444;SDS011;10883;51.946;20.140;2023-03-21T04:49:40;67.00;;;29.13;;
21444;SDS011;10883;51.946;20.140;2023-03-21T04:52:12;54.25;;;28.75;;
21444;SDS011;10883;51.946;20.140;2023-03-21T04:54:38;59.55;;;30.08;;
21444;SDS011;10883;51.946;20.140;2023-03-21T04:57:05;50.53;;;27.88;;
21444;SDS011;10883;51.946;20.140;2023-03-21T04:59:30;58.85;;;28.40;;
21444;SDS011;10883;51.946;20.140;2023-03-21T05:01:56;57.40;;;28.83;;
21444;SDS011;10883;51.946;20.140;2023-03-21T05:04:23;53.58;;;27.88;;
21444;SDS011;10883;51.946;20.140;2023-03-21T05:06:51;74.32;;;35.15;;
21444;SDS011;10883;51.946;20.140;2023-03-21T05:09:17;66.45;;;33.50;;
21444;SDS011;10883;51.946;20.140;2023-03-21T05:11:44;60.97;;;33.70;;
21444;SDS011;10883;51.946;20.140;2023-03-21T05:14:11;61.53;;;31.05;;
21444;SDS011;10883;51.946;20.140;2023-03-21T05:16:40;62.70;;;30.50;;
21444;SDS011;10883;51.946;20.140;2023-03-21T05:19:09;71.53;;;33.42;;
21444;SDS011;10883;51.946;20.140;2023-03-21T05:21:38;64.78;;;32.70;;
21444;SDS011;10883;51.946;20.140;2023-03-21T05:24:08;63.55;;;32.97;;
21444;SDS011;10883;51.946;20.140;2023-03-21T05:26:38;65.60;;;32.80;;
21444;SDS011;10883;51.946;20.140;2023-03-21T05:29:04;60.15;;;30.88;;
21444;SDS011;10883;51.946;20.140;2023-03-21T05:31:31;65.72;;;30.48;;
21444;SDS011;10883;51.946;20.140;2023-03-21T05:33:57;61.25;;;33.00;;
21444;SDS011;10883;51.946;20.140;2023-03-21T05:36:22;53.95;;;28.38;;
21444;SDS011;10883;51.946;20.140;2023-03-21T05:38:49;57.60;;;29.15;;
21444;SDS011;10883;51.946;20.140;2023-03-21T05:41:16;49.83;;;26.00;;
21444;SDS011;10883;51.946;20.140;2023-03-21T05:43:42;47.92;;;25.90;;
21444;SDS011;10883;51.946;20.140;2023-03-21T05:46:09;54.95;;;25.35;;
21444;SDS011;10883;51.946;20.140;2023-03-21T05:48:35;54.00;;;25.95;;
21444;SDS011;10883;51.946;20.140;2023-03-21T05:51:02;44.47;;;23.20;;
21444;SDS011;10883;51.946;20.140;2023-03-21T05:53:28;48.22;;;23.73;;
21444;SDS011;10883;51.946;20.140;2023-03-21T05:55:54;43.95;;;22.15;;
21444;SDS011;10883;51.946;20.140;2023-03-21T05:58:20;46.10;;;21.88;;
21444;SDS011;10883;51.946;20.140;2023-03-21T06:00:46;43.35;;;21.63;;
21444;SDS011;10883;51.946;20.140;2023-03-21T06:03:12;44.22;;;22.25;;
21444;SDS011;10883;51.946;20.140;2023-03-21T06:05:37;46.65;;;22.15;;
21444;SDS011;10883;51.946;20.140;2023-03-21T06:08:03;44.08;;;21.48;;
21444;SDS011;10883;51.946;20.140;2023-03-21T06:10:29;38.58;;;20.80;;
21444;SDS011;10883;51.946;20.140;2023-03-21T06:12:55;36.78;;;19.85;;
21444;SDS011;10883;51.946;20.140;2023-03-21T06:15:21;36.97;;;19.27;;
21444;SDS011;10883;51.946;20.140;2023-03-21T06:17:47;41.90;;;23.15;;
21444;SDS011;10883;51.946;20.140;2023-03-21T06:20:13;43.70;;;22.65;;
21444;SDS011;10883;51.946;20.140;2023-03-21T06:22:39;40.30;;;20.73;;
21444;SDS011;10883;51.946;20.140;2023-03-21T06:25:05;40.67;;;21.23;;
21444;SDS011;10883;51.946;20.140;2023-03-21T06:27:32;44.35;;;21.30;;
21444;SDS011;10883;51.946;20.140;2023-03-21T06:29:58;40.60;;;20.48;;
21444;SDS011;10883;51.946;20.140;2023-03-21T06:32:24;41.05;;;21.25;;
21444;SDS011;10883;51.946;20.140;2023-03-21T06:34:51;41.25;;;21.13;;
21444;SDS011;10883;51.946;20.140;2023-03-21T06:37:17;33.22;;;18.67;;
21444;SDS011;10883;51.946;20.140;2023-03-21T06:39:43;41.22;;;20.60;;
21444;SDS011;10883;51.946;20.140;2023-03-21T06:42:10;40.35;;;20.83;;
21444;SDS011;10883;51.946;20.140;2023-03-21T06:44:37;41.17;;;20.10;;
21444;SDS011;10883;51.946;20.140;2023-03-21T06:47:03;37.95;;;20.25;;
21444;SDS011;10883;51.946;20.140;2023-03-21T06:49:29;37.13;;;19.52;;
21444;SDS011;10883;51.946;20.140;2023-03-21T06:51:55;44.00;;;21.35;;
21444;SDS011;10883;51.946;20.140;2023-03-21T06:54:21;53.58;;;27.90;;
21444;SDS011;10883;51.946;20.140;2023-03-21T06:56:47;60.75;;;31.13;;
21444;SDS011;10883;51.946;20.140;2023-03-21T06:59:12;50.50;;;25.20;;
21444;SDS011;10883;51.946;20.140;2023-03-21T07:01:38;71.90;;;28.40;;
21444;SDS011;10883;51.946;20.140;2023-03-21T07:04:05;63.67;;;26.20;;
21444;SDS011;10883;51.946;20.140;2023-03-21T07:06:31;68.90;;;26.70;;
21444;SDS011;10883;51.946;20.140;2023-03-21T07:08:57;74.03;;;27.48;;
21444;SDS011;10883;51.946;20.140;2023-03-21T07:11:23;67.53;;;25.02;;
21444;SDS011;10883;51.946;20.140;2023-03-21T07:13:49;55.47;;;24.20;;
21444;SDS011;10883;51.946;20.140;2023-03-21T07:16:16;40.55;;;18.85;;
21444;SDS011;10883;51.946;20.140;2023-03-21T07:18:43;39.80;;;19.58;;
21444;SDS011;10883;51.946;20.140;2023-03-21T07:21:09;40.17;;;19.65;;
21444;SDS011;10883;51.946;20.140;2023-03-21T07:23:35;38.88;;;18.30;;
21444;SDS011;10883;51.946;20.140;2023-03-21T07:26:02;39.38;;;20.25;;
21444;SDS011;10883;51.946;20.140;2023-03-21T07:28:29;33.72;;;17.92;;
21444;SDS011;10883;51.946;20.140;2023-03-21T07:30:57;37.15;;;18.27;;
21444;SDS011;10883;51.946;20.140;2023-03-21T07:33:25;43.42;;;19.35;;
21444;SDS011;10883;51.946;20.140;2023-03-21T07:35:51;39.30;;;18.55;;
21444;SDS011;10883;51.946;20.140;2023-03-21T07:38:18;42.35;;;18.55;;
21444;SDS011;10883;51.946;20.140;2023-03-21T07:40:45;43.28;;;19.55;;
21444;SDS011;10883;51.946;20.140;2023-03-21T07:43:12;45.55;;;20.33;;
21444;SDS011;10883;51.946;20.140;2023-03-21T07:45:38;43.35;;;20.30;;
21444;SDS011;10883;51.946;20.140;2023-03-21T07:48:04;46.17;;;19.27;;
21444;SDS011;10883;51.946;20.140;2023-03-21T07:50:30;35.55;;;17.98;;
21444;SDS011;10883;51.946;20.140;2023-03-21T07:52:56;33.83;;;17.67;;
21444;SDS011;10883;51.946;20.140;2023-03-21T07:55:23;34.53;;;16.88;;
21444;SDS011;10883;51.946;20.140;2023-03-21T07:57:49;34.92;;;19.15;;
21444;SDS011;10883;51.946;20.140;2023-03-21T08:00:16;39.67;;;19.63;;
21444;SDS011;10883;51.946;20.140;2023-03-21T08:02:50;34.03;;;19.17;;
21444;SDS011;10883;51.946;20.140;2023-03-21T08:05:24;38.15;;;18.52;;
21444;SDS011;10883;51.946;20.140;2023-03-21T08:07:55;35.72;;;18.98;;
21444;SDS011;10883;51.946;20.140;2023-03-21T08:10:21;32.78;;;18.20;;
21444;SDS011;10883;51.946;20.140;2023-03-21T08:12:47;35.90;;;19.52;;
21444;SDS011;10883;51.946;20.140;2023-03-21T08:15:14;36.45;;;18.85;;
21444;SDS011;10883;51.946;20.140;2023-03-21T08:17:40;40.33;;;21.40;;
21444;SDS011;10883;51.946;20.140;2023-03-21T08:20:11;38.30;;;20.15;;
21444;SDS011;10883;51.946;20.140;2023-03-21T08:22:40;37.28;;;20.73;;
21444;SDS011;10883;51.946;20.140;2023-03-21T08:25:07;36.70;;;19.95;;
21444;SDS011;10883;51.946;20.140;2023-03-21T08:27:38;35.05;;;19.10;;
21444;SDS011;10883;51.946;20.140;2023-03-21T08:30:08;37.88;;;21.15;;
21444;SDS011;10883;51.946;20.140;2023-03-21T08:32:37;39.47;;;22.00;;
21444;SDS011;10883;51.946;20.140;2023-03-21T08:35:04;39.28;;;22.70;;
21444;SDS011;10883;51.946;20.140;2023-03-21T08:37:35;33.30;;;19.08;;
21444;SDS011;10883;51.946;20.140;2023-03-21T08:40:05;50.17;;;23.27;;
21444;SDS011;10883;51.946;20.140;2023-03-21T08:42:36;53.08;;;24.85;;
21444;SDS011;10883;51.946;20.140;2023-03-21T08:45:03;63.28;;;27.33;;
21444;SDS011;10883;51.946;20.140;2023-03-21T08:47:30;64.45;;;27.40;;
21444;SDS011;10883;51.946;20.140;2023-03-21T08:49:56;53.40;;;24.98;;
21444;SDS011;10883;51.946;20.140;2023-03-21T08:52:23;41.92;;;22.83;;
21444;SDS011;10883;51.946;20.140;2023-03-21T08:54:49;39.03;;;21.77;;
21444;SDS011;10883;51.946;20.140;2023-03-21T08:57:15;39.03;;;21.13;;
21444;SDS011;10883;51.946;20.140;2023-03-21T08:59:41;33.80;;;19.45;;
21444;SDS011;10883;51.946;20.140;2023-03-21T09:02:08;41.95;;;21.85;;
21444;SDS011;10883;51.946;20.140;2023-03-21T09:04:35;39.00;;;19.83;;
21444;SDS011;10883;51.946;20.140;2023-03-21T09:07:01;35.78;;;18.92;;
21444;SDS011;10883;51.946;20.140;2023-03-21T09:09:29;34.05;;;19.45;;
21444;SDS011;10883;51.946;20.140;2023-03-21T09:11:55;33.75;;;18.10;;
21444;SDS011;10883;51.946;20.140;2023-03-21T09:14:21;30.27;;;18.27;;
21444;SDS011;10883;51.946;20.140;2023-03-21T09:16:46;30.77;;;17.73;;
21444;SDS011;10883;51.946;20.140;2023-03-21T09:19:12;31.30;;;18.30;;
21444;SDS011;10883;51.946;20.140;2023-03-21T09:21:39;24.60;;;15.38;;
21444;SDS011;10883;51.946;20.140;2023-03-21T09:24:06;20.52;;;12.27;;
21444;SDS011;10883;51.946;20.140;2023-03-21T09:26:34;21.77;;;12.00;;
21444;SDS011;10883;51.946;20.140;2023-03-21T09:29:00;18.70;;;10.75;;
21444;SDS011;10883;51.946;20.140;2023-03-21T09:31:27;16.45;;;9.20;;
21444;SDS011;10883;51.946;20.140;2023-03-21T09:33:53;16.02;;;8.60;;
21444;SDS011;10883;51.946;20.140;2023-03-21T09:36:21;16.75;;;9.60;;
21444;SDS011;10883;51.946;20.140;2023-03-21T09:38:50;17.95;;;9.95;;
21444;SDS011;10883;51.946;20.140;2023-03-21T09:53:04;12.07;;;6.32;;
21444;SDS011;10883;51.946;20.140;2023-03-21T09:55:38;9.20;;;6.43;;
21444;SDS011;10883;51.946;20.140;2023-03-21T09:58:38;10.07;;;6.13;;
21444;SDS011;10883;51.946;20.140;2023-03-21T10:03:51;9.88;;;5.88;;
21444;SDS011;10883;51.946;20.140;2023-03-21T10:06:18;7.25;;;4.72;;
21444;SDS011;10883;51.946;20.140;2023-03-21T10:08:53;6.90;;;4.32;;
21444;SDS011;10883;51.946;20.140;2023-03-21T10:17:00;7.63;;;5.38;;
21444;SDS011;10883;51.946;20.140;2023-03-21T10:19:41;7.50;;;5.75;;
21444;SDS011;10883;51.946;20.140;2023-03-21T10:22:10;8.77;;;5.95;;
21444;SDS011;10883;51.946;20.140;2023-03-21T10:24:36;7.47;;;5.45;;
21444;SDS011;10883;51.946;20.140;2023-03-21T10:27:02;8.93;;;5.82;;
21444;SDS011;10883;51.946;20.140;2023-03-21T10:29:31;8.38;;;5.93;;
21444;SDS011;10883;51.946;20.140;2023-03-21T10:32:08;9.90;;;6.50;;
21444;SDS011;10883;51.946;20.140;2023-03-21T10:34:37;8.25;;;6.35;;
21444;SDS011;10883;51.946;20.140;2023-03-21T10:37:11;8.23;;;5.63;;
21444;SDS011;10883;51.946;20.140;2023-03-21T10:39:38;6.03;;;4.25;;
21444;SDS011;10883;51.946;20.140;2023-03-21T10:42:17;5.28;;;4.28;;
21444;SDS011;10883;51.946;20.140;2023-03-21T10:44:49;6.88;;;4.28;;
21444;SDS011;10883;51.946;20.140;2023-03-21T10:47:21;6.18;;;4.35;;
21444;SDS011;10883;51.946;20.140;2023-03-21T10:50:04;6.40;;;4.47;;
21444;SDS011;10883;51.946;20.140;2023-03-21T10:52:31;7.80;;;4.97;;
21444;SDS011;10883;51.946;20.140;2023-03-21T10:55:17;6.68;;;4.75;;
21444;SDS011;10883;51.946;20.140;2023-03-21T10:58:04;7.90;;;5.38;;
21444;SDS011;10883;51.946;20.140;2023-03-21T11:00:36;7.55;;;5.32;;
21444;SDS011;10883;51.946;20.140;2023-03-21T11:03:05;8.35;;;5.93;;
21444;SDS011;10883;51.946;20.140;2023-03-21T11:05:44;10.65;;;6.65;;
21444;SDS011;10883;51.946;20.140;2023-03-21T11:08:14;8.02;;;6.18;;
21444;SDS011;10883;51.946;20.140;2023-03-21T11:10:54;4.47;;;3.55;;
21444;SDS011;10883;51.946;20.140;2023-03-21T11:13:32;5.05;;;3.50;;
21444;SDS011;10883;51.946;20.140;2023-03-21T11:16:10;5.20;;;3.72;;
21444;SDS011;10883;51.946;20.140;2023-03-21T11:18:43;8.23;;;4.68;;
21444;SDS011;10883;51.946;20.140;2023-03-21T11:21:13;8.48;;;5.13;;
21444;SDS011;10883;51.946;20.140;2023-03-21T11:23:41;7.65;;;5.32;;
21444;SDS011;10883;51.946;20.140;2023-03-21T11:26:20;7.07;;;4.95;;
21444;SDS011;10883;51.946;20.140;2023-03-21T11:28:55;5.50;;;4.05;;
21444;SDS011;10883;51.946;20.140;2023-03-21T11:31:21;6.30;;;3.20;;
21444;SDS011;10883;51.946;20.140;2023-03-21T11:34:04;6.55;;;3.72;;
21444;SDS011;10883;51.946;20.140;2023-03-21T11:36:34;6.72;;;3.33;;
21444;SDS011;10883;51.946;20.140;2023-03-21T11:39:45;5.53;;;3.50;;
21444;SDS011;10883;51.946;20.140;2023-03-21T11:41:54;5.22;;;3.30;;
21444;SDS011;10883;51.946;20.140;2023-03-21T11:44:25;4.18;;;3.13;;
21444;SDS011;10883;51.946;20.140;2023-03-21T11:46:52;4.38;;;3.20;;
21444;SDS011;10883;51.946;20.140;2023-03-21T11:49:19;5.00;;;3.17;;
21444;SDS011;10883;51.946;20.140;2023-03-21T11:52:02;5.32;;;3.60;;
21444;SDS011;10883;51.946;20.140;2023-03-21T12:00:25;6.55;;;5.05;;
21444;SDS011;10883;51.946;20.140;2023-03-21T12:06:04;8.15;;;5.60;;
21444;SDS011;10883;51.946;20.140;2023-03-21T12:22:31;7.85;;;5.40;;
21444;SDS011;10883;51.946;20.140;2023-03-21T12:25:09;7.90;;;5.10;;
21444;SDS011;10883;51.946;20.140;2023-03-21T12:27:48;7.75;;;4.80;;
21444;SDS011;10883;51.946;20.140;2023-03-21T12:41:32;10.43;;;5.82;;
21444;SDS011;10883;51.946;20.140;2023-03-21T12:44:09;7.90;;;6.28;;
21444;SDS011;10883;51.946;20.140;2023-03-21T12:49:14;8.98;;;5.88;;
21444;SDS011;10883;51.946;20.140;2023-03-21T12:52:09;8.88;;;5.47;;
21444;SDS011;10883;51.946;20.140;2023-03-21T12:54:43;8.15;;;5.72;;
21444;SDS011;10883;51.946;20.140;2023-03-21T12:57:19;10.93;;;6.78;;
21444;SDS011;10883;51.946;20.140;2023-03-21T13:00:09;11.80;;;6.88;;
21444;SDS011;10883;51.946;20.140;2023-03-21T13:03:02;10.20;;;6.40;;
21444;SDS011;10883;51.946;20.140;2023-03-21T13:08:10;10.65;;;6.75;;
21444;SDS011;10883;51.946;20.140;2023-03-21T13:10:39;9.18;;;6.72;;
21444;SDS011;10883;51.946;20.140;2023-03-21T13:13:54;12.60;;;8.00;;
21444;SDS011;10883;51.946;20.140;2023-03-21T13:16:19;9.82;;;7.60;;
21444;SDS011;10883;51.946;20.140;2023-03-21T13:18:48;11.25;;;7.78;;
21444;SDS011;10883;51.946;20.140;2023-03-21T13:24:00;11.38;;;6.80;;
21444;SDS011;10883;51.946;20.140;2023-03-21T13:26:38;12.48;;;8.13;;
21444;SDS011;10883;51.946;20.140;2023-03-21T13:29:12;9.75;;;6.15;;
21444;SDS011;10883;51.946;20.140;2023-03-21T13:31:47;9.85;;;6.57;;
21444;SDS011;10883;51.946;20.140;2023-03-21T13:34:13;9.57;;;6.97;;
21444;SDS011;10883;51.946;20.140;2023-03-21T13:36:40;7.90;;;5.43;;
21444;SDS011;10883;51.946;20.140;2023-03-21T13:39:20;7.75;;;6.25;;
21444;SDS011;10883;51.946;20.140;2023-03-21T13:41:50;10.32;;;7.03;;
21444;SDS011;10883;51.946;20.140;2023-03-21T13:44:23;14.55;;;9.35;;
21444;SDS011;10883;51.946;20.140;2023-03-21T13:47:22;12.65;;;7.43;;
21444;SDS011;10883;51.946;20.140;2023-03-21T13:55:40;12.85;;;7.15;;
21444;SDS011;10883;51.946;20.140;2023-03-21T14:04:18;9.10;;;7.30;;
21444;SDS011;10883;51.946;20.140;2023-03-21T14:06:47;12.43;;;8.02;;
21444;SDS011;10883;51.946;20.140;2023-03-21T14:09:32;10.80;;;7.40;;
21444;SDS011;10883;51.946;20.140;2023-03-21T14:12:00;10.55;;;7.88;;
21444;SDS011;10883;51.946;20.140;2023-03-21T14:14:29;11.85;;;7.97;;
21444;SDS011;10883;51.946;20.140;2023-03-21T14:17:10;12.23;;;6.45;;
21444;SDS011;10883;51.946;20.140;2023-03-21T14:19:49;9.88;;;6.85;;
21444;SDS011;10883;51.946;20.140;2023-03-21T14:22:19;10.48;;;6.32;;
21444;SDS011;10883;51.946;20.140;2023-03-21T14:24:58;12.20;;;7.82;;
21444;SDS011;10883;51.946;20.140;2023-03-21T14:27:27;11.10;;;7.65;;
21444;SDS011;10883;51.946;20.140;2023-03-21T14:29:56;10.50;;;7.45;;
21444;SDS011;10883;51.946;20.140;2023-03-21T14:32:24;7.55;;;6.05;;
21444;SDS011;10883;51.946;20.140;2023-03-21T14:34:54;9.57;;;6.72;;
21444;SDS011;10883;51.946;20.140;2023-03-21T14:37:26;9.85;;;6.60;;
21444;SDS011;10883;51.946;20.140;2023-03-21T14:39:57;9.93;;;6.45;;
21444;SDS011;10883;51.946;20.140;2023-03-21T14:42:34;10.77;;;6.88;;
21444;SDS011;10883;51.946;20.140;2023-03-21T14:45:35;9.23;;;6.53;;
21444;SDS011;10883;51.946;20.140;2023-03-21T14:47:58;12.07;;;7.53;;
21444;SDS011;10883;51.946;20.140;2023-03-21T14:50:48;12.38;;;7.15;;
21444;SDS011;10883;51.946;20.140;2023-03-21T14:53:28;10.75;;;7.63;;
21444;SDS011;10883;51.946;20.140;2023-03-21T14:56:05;14.27;;;8.50;;
21444;SDS011;10883;51.946;20.140;2023-03-21T14:58:53;12.23;;;8.10;;
21444;SDS011;10883;51.946;20.140;2023-03-21T15:01:30;12.82;;;8.30;;
21444;SDS011;10883;51.946;20.140;2023-03-21T15:03:59;13.52;;;8.65;;
21444;SDS011;10883;51.946;20.140;2023-03-21T15:06:28;18.52;;;9.93;;
21444;SDS011;10883;51.946;20.140;2023-03-21T15:08:58;15.52;;;9.25;;
21444;SDS011;10883;51.946;20.140;2023-03-21T15:11:35;19.38;;;10.35;;
21444;SDS011;10883;51.946;20.140;2023-03-21T15:14:03;14.38;;;8.98;;
21444;SDS011;10883;51.946;20.140;2023-03-21T15:16:33;13.15;;;8.05;;
21444;SDS011;10883;51.946;20.140;2023-03-21T15:18:59;11.23;;;7.70;;
21444;SDS011;10883;51.946;20.140;2023-03-21T15:21:27;11.75;;;7.75;;
21444;SDS011;10883;51.946;20.140;2023-03-21T15:23:57;15.70;;;8.82;;
21444;SDS011;10883;51.946;20.140;2023-03-21T15:26:37;18.38;;;9.98;;
21444;SDS011;10883;51.946;20.140;2023-03-21T15:29:04;16.15;;;9.70;;
21444;SDS011;10883;51.946;20.140;2023-03-21T15:31:34;13.63;;;9.32;;
21444;SDS011;10883;51.946;20.140;2023-03-21T15:34:03;16.02;;;9.32;;
21444;SDS011;10883;51.946;20.140;2023-03-21T15:36:34;16.38;;;11.07;;
21444;SDS011;10883;51.946;20.140;2023-03-21T15:39:10;18.13;;;10.68;;
21444;SDS011;10883;51.946;20.140;2023-03-21T15:41:38;24.38;;;13.00;;
21444;SDS011;10883;51.946;20.140;2023-03-21T15:46:42;30.88;;;16.38;;
21444;SDS011;10883;51.946;20.140;2023-03-21T15:49:29;38.20;;;17.33;;
21444;SDS011;10883;51.946;20.140;2023-03-21T15:51:59;34.03;;;17.00;;
21444;SDS011;10883;51.946;20.140;2023-03-21T15:57:19;28.65;;;14.13;;
21444;SDS011;10883;51.946;20.140;2023-03-21T16:02:45;23.25;;;14.05;;
21444;SDS011;10883;51.946;20.140;2023-03-21T16:05:27;27.40;;;15.55;;
21444;SDS011;10883;51.946;20.140;2023-03-21T16:08:41;22.17;;;13.88;;
21444;SDS011;10883;51.946;20.140;2023-03-21T16:10:51;26.60;;;15.77;;
21444;SDS011;10883;51.946;20.140;2023-03-21T16:13:17;28.98;;;16.55;;
21444;SDS011;10883;51.946;20.140;2023-03-21T16:15:43;26.63;;;15.05;;
21444;SDS011;10883;51.946;20.140;2023-03-21T16:18:12;23.38;;;14.18;;
21444;SDS011;10883;51.946;20.140;2023-03-21T16:20:44;28.92;;;15.07;;
21444;SDS011;10883;51.946;20.140;2023-03-21T16:23:11;24.17;;;13.95;;
21444;SDS011;10883;51.946;20.140;2023-03-21T16:25:39;24.65;;;13.55;;